createdAt,value
2018-05-12T00:00:06.949Z,13.67
2018-05-12T00:02:34.416Z,12.97
2018-05-12T00:05:01.873Z,13.80
2018-05-12T00:07:30.134Z,13.77
2018-05-12T00:09:57.545Z,13.93
2018-05-12T00:12:25.005Z,13.07
2018-05-12T00:14:52.547Z,14.50
2018-05-12T00:17:20.693Z,15.20
2018-05-12T00:19:48.140Z,15.07
2018-05-12T00:22:15.603Z,14.93
2018-05-12T00:24:43.066Z,16.53
2018-05-12T00:27:10.525Z,17.73
2018-05-12T00:29:38.740Z,16.17
2018-05-12T00:32:06.208Z,15.90
2018-05-12T00:34:33.661Z,15.27
2018-05-12T00:37:01.125Z,16.37
2018-05-12T00:39:28.577Z,16.07
2018-05-12T00:41:56.849Z,18.33
2018-05-12T00:44:24.300Z,15.33
2018-05-12T00:46:51.760Z,17.30
2018-05-12T00:49:19.220Z,17.00
2018-05-12T00:51:46.676Z,17.20
2018-05-12T00:54:14.137Z,19.53
2018-05-12T00:56:41.592Z,19.23
2018-05-12T00:59:09.052Z,20.40
2018-05-12T01:01:37.267Z,18.73
2018-05-12T01:04:04.736Z,20.07
2018-05-12T01:06:32.245Z,19.80
2018-05-12T01:08:59.704Z,19.37
2018-05-12T01:11:27.161Z,20.60
2018-05-12T01:13:54.621Z,21.30
2018-05-12T01:16:22.096Z,20.93
2018-05-12T01:18:49.553Z,21.83
2018-05-12T01:21:17.049Z,21.87
2018-05-12T01:23:44.463Z,21.80
2018-05-12T01:26:12.683Z,23.03
2018-05-12T01:28:40.144Z,21.60
2018-05-12T01:31:07.595Z,21.93
2018-05-12T01:33:35.073Z,22.33
2018-05-12T01:36:02.520Z,23.43
2018-05-12T01:38:30.973Z,23.20
2018-05-12T01:40:58.563Z,23.63
2018-05-12T01:43:26.013Z,24.87
2018-05-12T01:45:53.492Z,24.30
2018-05-12T01:48:20.940Z,23.13
2018-05-12T01:50:48.401Z,25.33
2018-05-12T01:53:15.866Z,23.97
2018-05-12T01:55:43.332Z,24.33
2018-05-12T01:58:10.776Z,23.03
2018-05-12T02:00:38.241Z,22.07
2018-05-12T02:03:06.469Z,22.30
2018-05-12T02:05:33.921Z,23.60
2018-05-12T02:08:01.436Z,23.17
2018-05-12T02:10:28.903Z,25.50
2018-05-12T02:12:56.356Z,23.47
2018-05-12T02:15:23.816Z,25.43
2018-05-12T02:17:51.384Z,26.40
2018-05-12T02:20:18.845Z,23.37
2018-05-12T02:22:46.296Z,21.80
2018-05-12T02:25:13.757Z,26.10
2018-05-12T02:27:41.220Z,26.47
2018-05-12T02:30:09.460Z,26.43
2018-05-12T02:32:36.916Z,27.50
2018-05-12T02:35:04.364Z,29.53
2018-05-12T02:37:31.831Z,28.17
2018-05-12T02:39:59.291Z,30.70
2018-05-12T02:42:26.749Z,27.67
2018-05-12T02:44:54.979Z,27.57
2018-05-12T02:47:22.440Z,32.27
2018-05-12T02:49:49.880Z,28.60
2018-05-12T02:52:17.345Z,30.63
2018-05-12T02:54:45.560Z,29.60
2018-05-12T02:57:13.029Z,29.27
2018-05-12T02:59:40.483Z,31.73
2018-05-12T03:02:07.935Z,32.40
2018-05-12T03:04:36.157Z,32.63
2018-05-12T03:07:03.625Z,32.00
2018-05-12T03:09:31.086Z,32.80
2018-05-12T03:11:58.552Z,32.33
2018-05-12T03:14:26.037Z,30.17
2018-05-12T03:16:53.460Z,34.83
2018-05-12T03:19:21.681Z,34.43
2018-05-12T03:21:49.138Z,33.40
2018-05-12T03:24:16.601Z,32.07
2018-05-12T03:26:44.046Z,33.20
2018-05-12T03:29:11.491Z,29.27
2018-05-12T03:31:38.960Z,32.03
2018-05-12T03:34:06.413Z,32.43
2018-05-12T03:36:33.866Z,33.63
2018-05-12T03:39:01.320Z,30.83
2018-05-12T03:41:28.777Z,34.60
2018-05-12T03:43:56.244Z,33.27
2018-05-12T03:46:24.451Z,34.17
2018-05-12T03:48:51.917Z,32.00
2018-05-12T03:51:19.359Z,33.80
2018-05-12T03:53:47.584Z,31.10
2018-05-12T03:56:15.032Z,32.47
2018-05-12T03:58:42.516Z,30.60
2018-05-12T04:01:09.969Z,30.93
2018-05-12T04:03:37.440Z,31.63
2018-05-12T04:06:16.965Z,30.27
2018-05-12T04:08:57.943Z,30.73
2018-05-12T04:11:37.356Z,32.60
2018-05-12T04:14:04.815Z,34.17
2018-05-12T04:16:32.263Z,31.90
2018-05-12T04:18:59.738Z,32.07
2018-05-12T04:21:27.197Z,30.53
2018-05-12T04:23:55.415Z,29.07
2018-05-12T04:26:22.937Z,31.87
2018-05-12T04:28:50.380Z,31.70
2018-05-12T04:31:17.843Z,31.17
2018-05-12T04:33:45.387Z,31.03
2018-05-12T04:36:12.847Z,30.93
2018-05-12T04:38:40.294Z,32.67
2018-05-12T04:41:08.529Z,30.47
2018-05-12T04:43:35.979Z,32.50
2018-05-12T04:46:03.431Z,30.87
2018-05-12T04:48:30.892Z,30.70
2018-05-12T04:50:59.116Z,31.27
2018-05-12T04:53:26.570Z,29.30
2018-05-12T04:55:54.029Z,30.67
2018-05-12T04:58:21.471Z,32.30
2018-05-12T05:00:49.696Z,30.77
2018-05-12T05:03:17.154Z,27.97
2018-05-12T05:05:44.631Z,29.20
2018-05-12T05:08:12.116Z,29.83
2018-05-12T05:10:40.297Z,27.03
2018-05-12T05:13:07.748Z,30.43
2018-05-12T05:15:35.204Z,28.57
2018-05-12T05:18:03.429Z,27.90
2018-05-12T05:20:30.887Z,27.53
2018-05-12T05:22:58.352Z,29.80
2018-05-12T05:25:25.789Z,25.13
2018-05-12T05:27:54.039Z,27.40
2018-05-12T05:30:21.508Z,30.00
2018-05-12T05:32:48.975Z,26.10
2018-05-12T05:35:16.550Z,29.80
2018-05-12T05:37:43.988Z,26.93
2018-05-12T05:40:11.432Z,28.90
2018-05-12T05:42:38.897Z,29.77
2018-05-12T05:45:07.113Z,28.57
2018-05-12T05:47:34.572Z,28.30
2018-05-12T05:50:02.021Z,30.47
2018-05-12T05:52:29.492Z,30.50
2018-05-12T05:54:57.707Z,27.30
2018-05-12T05:57:25.176Z,31.60
2018-05-12T05:59:52.625Z,29.60
2018-05-12T06:02:20.084Z,29.73
2018-05-12T06:04:48.309Z,29.20
2018-05-12T06:07:15.878Z,34.43
2018-05-12T06:09:43.229Z,31.87
2018-05-12T06:12:10.694Z,34.10
2018-05-12T06:14:38.153Z,32.83
2018-05-12T06:17:05.642Z,30.87
2018-05-12T06:19:33.109Z,28.40
2018-05-12T06:22:00.560Z,32.57
2018-05-12T06:24:28.018Z,30.07
2018-05-12T06:26:56.235Z,34.20
2018-05-12T06:29:23.705Z,30.77
2018-05-12T06:31:51.155Z,33.47
2018-05-12T06:34:18.621Z,28.10
2018-05-12T06:36:46.064Z,26.07
2018-05-12T06:39:13.528Z,27.97
2018-05-12T06:41:40.980Z,27.33
2018-05-12T06:44:08.524Z,30.80
2018-05-12T06:46:35.968Z,25.97
2018-05-12T06:49:03.437Z,28.50
2018-05-12T06:51:30.893Z,30.77
2018-05-12T06:53:59.132Z,30.23
2018-05-12T06:56:26.584Z,31.30
2018-05-12T06:58:54.046Z,28.80
2018-05-12T07:01:21.537Z,28.83
2018-05-12T07:03:48.961Z,27.90
2018-05-12T07:06:17.191Z,31.07
2018-05-12T07:08:44.640Z,28.60
2018-05-12T07:11:12.106Z,26.17
2018-05-12T07:13:39.556Z,26.70
2018-05-12T07:16:07.786Z,27.70
2018-05-12T07:18:35.223Z,27.27
2018-05-12T07:21:02.689Z,26.90
2018-05-12T07:23:30.133Z,28.57
2018-05-12T07:25:58.359Z,26.80
2018-05-12T07:28:25.807Z,27.50
2018-05-12T07:30:53.272Z,28.93
2018-05-12T07:33:20.735Z,26.80
2018-05-12T07:35:48.969Z,27.63
2018-05-12T07:38:16.421Z,26.93
2018-05-12T07:40:43.880Z,24.83
2018-05-12T07:43:11.340Z,23.63
2018-05-12T07:45:39.562Z,23.50
2018-05-12T07:48:07.007Z,24.00
2018-05-12T07:50:34.465Z,25.87
2018-05-12T07:53:01.922Z,26.03
2018-05-12T07:55:30.144Z,27.57
2018-05-12T07:57:57.594Z,26.40
2018-05-12T08:00:25.048Z,25.80
2018-05-12T08:02:53.280Z,22.33
2018-05-12T08:05:20.735Z,24.83
2018-05-12T08:07:48.196Z,25.10
2018-05-12T08:10:15.678Z,22.70
2018-05-12T08:12:43.143Z,25.63
2018-05-12T08:15:10.581Z,26.77
2018-05-12T08:17:38.796Z,26.30
2018-05-12T08:20:06.250Z,25.67
2018-05-12T08:22:33.706Z,26.73
2018-05-12T08:25:01.923Z,26.87
2018-05-12T08:27:29.388Z,24.23
2018-05-12T08:29:56.856Z,28.73
2018-05-12T08:32:24.343Z,28.03
2018-05-12T08:34:51.784Z,25.33
2018-05-12T08:37:19.261Z,24.43
2018-05-12T08:39:46.721Z,25.57
2018-05-12T08:42:14.189Z,27.53
2018-05-12T08:44:41.650Z,28.67
2018-05-12T08:47:09.104Z,31.37
2018-05-12T08:49:37.327Z,28.57
2018-05-12T08:52:04.779Z,26.30
2018-05-12T08:54:32.232Z,24.73
2018-05-12T08:57:00.464Z,25.87
2018-05-12T08:59:27.927Z,29.00
2018-05-12T09:01:55.385Z,31.53
2018-05-12T09:04:22.827Z,29.73
2018-05-12T09:06:51.057Z,25.83
2018-05-12T09:09:18.504Z,31.07
2018-05-12T09:11:45.969Z,30.57
2018-05-12T09:14:13.429Z,23.93
2018-05-12T09:16:41.660Z,28.13
2018-05-12T09:19:09.113Z,29.40
2018-05-12T09:21:36.574Z,29.13
2018-05-12T09:24:04.021Z,29.17
2018-05-12T09:26:31.484Z,27.07
2018-05-12T09:28:59.705Z,30.03
2018-05-12T09:31:27.168Z,30.50
2018-05-12T09:33:54.624Z,30.17
2018-05-12T09:36:22.091Z,28.93
2018-05-12T09:38:50.291Z,30.20
2018-05-12T09:41:17.776Z,30.23
2018-05-12T09:43:45.233Z,29.70
2018-05-12T09:46:12.696Z,26.80
2018-05-12T09:48:40.144Z,28.23
2018-05-12T09:51:07.604Z,28.53
2018-05-12T09:53:35.825Z,29.17
2018-05-12T09:56:03.301Z,25.90
2018-05-12T09:58:30.748Z,28.13
2018-05-12T10:00:58.213Z,25.50
2018-05-12T10:03:25.682Z,26.70
2018-05-12T10:05:53.891Z,28.07
2018-05-12T10:08:21.344Z,27.73
2018-05-12T10:10:48.804Z,26.73
2018-05-12T10:13:16.243Z,28.77
2018-05-12T10:15:44.524Z,26.73
2018-05-12T10:18:11.973Z,26.87
2018-05-12T10:20:39.435Z,25.87
2018-05-12T10:23:06.888Z,25.13
2018-05-12T10:25:34.358Z,24.93
2018-05-12T10:28:01.799Z,25.10
2018-05-12T10:30:29.271Z,24.67
2018-05-12T10:32:56.725Z,23.90
2018-05-12T10:35:25.048Z,23.23
2018-05-12T10:37:52.492Z,21.50
2018-05-12T10:40:20.709Z,21.27
2018-05-12T10:42:48.177Z,19.73
2018-05-12T10:45:15.656Z,22.77
2018-05-12T10:47:43.117Z,22.63
2018-05-12T10:50:11.304Z,21.07
2018-05-12T10:52:38.774Z,19.77
2018-05-12T10:55:06.218Z,18.37
2018-05-12T10:57:33.679Z,20.70
2018-05-12T11:00:01.900Z,19.87
2018-05-12T11:02:29.351Z,18.33
2018-05-12T11:04:56.801Z,16.77
2018-05-12T11:07:25.024Z,18.13
2018-05-12T11:09:52.468Z,18.40
2018-05-12T11:12:19.939Z,17.13
2018-05-12T11:14:47.383Z,17.60
2018-05-12T11:17:15.607Z,16.13
2018-05-12T11:19:43.064Z,16.33
2018-05-12T11:22:10.530Z,14.37
2018-05-12T11:24:38.122Z,15.63
2018-05-12T11:27:05.576Z,12.83
2018-05-12T11:29:33.019Z,14.47
2018-05-12T11:32:00.491Z,15.73
2018-05-12T11:34:28.704Z,14.63
2018-05-12T11:36:56.177Z,14.47
2018-05-12T11:39:23.619Z,15.77
2018-05-12T11:41:51.955Z,14.37
2018-05-12T11:44:19.401Z,16.50
2018-05-12T11:46:46.860Z,16.23
2018-05-12T11:49:14.311Z,15.50
2018-05-12T11:51:42.549Z,13.70
2018-05-12T11:54:10.006Z,14.10
2018-05-12T11:56:37.452Z,15.10
2018-05-12T11:59:04.899Z,14.67
2018-05-12T12:01:32.358Z,13.30
2018-05-12T12:03:59.845Z,17.53
2018-05-12T12:06:28.064Z,14.00
2018-05-12T12:08:55.508Z,14.37
2018-05-12T12:11:22.965Z,12.33
2018-05-12T12:13:51.175Z,13.70
2018-05-12T12:16:18.661Z,12.40
2018-05-12T12:18:46.120Z,13.87
2018-05-12T12:21:13.585Z,13.90
2018-05-12T12:23:41.033Z,12.43
2018-05-12T12:26:09.264Z,13.57
2018-05-12T12:28:36.717Z,11.73
2018-05-12T12:31:04.181Z,12.17
2018-05-12T12:33:31.624Z,12.80
2018-05-12T12:35:59.876Z,10.13
2018-05-12T12:38:27.321Z,9.83
2018-05-12T12:40:54.777Z,10.83
2018-05-12T12:43:22.221Z,9.83
2018-05-12T12:45:50.436Z,25.87
2018-05-12T12:48:17.891Z,12.17
2018-05-12T12:50:45.340Z,9.03
2018-05-12T12:53:13.565Z,10.13
2018-05-12T12:55:41.010Z,10.97
2018-05-12T12:58:08.465Z,12.37
2018-05-12T13:00:36.679Z,12.97
2018-05-12T13:03:04.138Z,10.87
2018-05-12T13:05:31.591Z,8.93
2018-05-12T13:07:59.813Z,10.03
2018-05-12T13:10:27.256Z,9.20
2018-05-12T13:12:54.711Z,9.03
2018-05-12T13:15:22.917Z,8.83
2018-05-12T13:17:50.415Z,8.03
2018-05-12T13:20:17.861Z,8.87
2018-05-12T13:22:45.325Z,12.10
2018-05-12T13:25:12.768Z,9.33
2018-05-12T13:27:40.993Z,9.23
2018-05-12T13:30:08.456Z,10.60
2018-05-12T13:32:35.916Z,9.53
2018-05-12T13:35:03.373Z,12.87
2018-05-12T13:37:31.597Z,9.03
2018-05-12T13:39:59.040Z,9.60
2018-05-12T13:42:26.490Z,8.73
2018-05-12T13:44:54.701Z,10.20
2018-05-12T13:47:22.236Z,10.67
2018-05-12T13:49:49.673Z,9.77
2018-05-12T13:52:17.133Z,10.23
2018-05-12T13:54:44.662Z,8.80
2018-05-12T13:57:12.037Z,9.60
2018-05-12T13:59:39.505Z,10.33
2018-05-12T14:02:06.961Z,11.73
2018-05-12T14:04:35.175Z,10.63
2018-05-12T14:07:02.628Z,9.60
2018-05-12T14:09:30.080Z,10.20
2018-05-12T14:11:58.295Z,8.93
2018-05-12T14:14:25.772Z,8.73
2018-05-12T14:16:53.207Z,10.77
2018-05-12T14:19:21.422Z,7.57
2018-05-12T14:21:48.881Z,9.17
2018-05-12T14:24:16.342Z,8.70
2018-05-12T14:26:44.631Z,7.13
2018-05-12T14:29:12.825Z,9.23
2018-05-12T14:31:40.300Z,9.50
2018-05-12T14:34:08.495Z,9.40
2018-05-12T14:36:35.958Z,10.00
2018-05-12T14:39:03.460Z,9.80
2018-05-12T14:41:30.912Z,9.07
2018-05-12T14:43:58.360Z,9.03
2018-05-12T14:46:25.873Z,7.80
2018-05-12T14:48:53.320Z,9.47
2018-05-12T14:51:20.771Z,8.63
2018-05-12T14:53:48.257Z,8.13
2018-05-12T14:56:15.684Z,8.93
2018-05-12T14:58:43.995Z,7.97
2018-05-12T15:01:11.461Z,7.93
2018-05-12T15:03:38.919Z,8.57
2018-05-12T15:06:07.114Z,8.23
2018-05-12T15:08:34.595Z,7.87
2018-05-12T15:11:02.019Z,8.30
2018-05-12T15:13:30.237Z,8.33
2018-05-12T15:15:57.680Z,7.70
2018-05-12T15:18:25.990Z,8.27
2018-05-12T15:20:53.353Z,7.80
2018-05-12T15:23:20.936Z,8.27
2018-05-12T15:25:48.409Z,7.40
2018-05-12T15:28:15.885Z,6.67
2018-05-12T15:30:43.368Z,7.93
2018-05-12T15:33:10.806Z,9.57
2018-05-12T15:35:38.247Z,8.00
2018-05-12T15:38:06.462Z,6.53
2018-05-12T15:40:33.921Z,8.20
2018-05-12T15:43:02.141Z,6.97
2018-05-12T15:45:29.588Z,7.83
2018-05-12T15:47:57.039Z,8.03
2018-05-12T15:50:25.269Z,7.60
2018-05-12T15:52:52.733Z,8.03
2018-05-12T15:55:20.193Z,7.13
2018-05-12T15:57:47.636Z,7.90
2018-05-12T16:00:15.078Z,7.60
2018-05-12T16:02:42.545Z,8.53
2018-05-12T16:05:10.018Z,7.77
2018-05-12T16:07:37.465Z,7.17
2018-05-12T16:10:04.910Z,9.33
2018-05-12T16:12:32.396Z,7.77
2018-05-12T16:14:59.839Z,7.60
2018-05-12T16:17:27.297Z,7.70
2018-05-12T16:19:54.744Z,8.43
2018-05-12T16:22:23.107Z,6.83
2018-05-12T16:24:50.552Z,8.57
2018-05-12T16:27:18.011Z,9.63
2018-05-12T16:29:45.452Z,10.53
2018-05-12T16:32:12.915Z,10.13
2018-05-12T16:34:41.128Z,10.67
2018-05-12T16:37:08.596Z,9.43
2018-05-12T16:39:36.041Z,7.90
2018-05-12T16:42:04.277Z,8.87
2018-05-12T16:44:31.767Z,8.20
2018-05-12T16:46:59.177Z,9.63
2018-05-12T16:49:26.623Z,8.93
2018-05-12T16:51:54.854Z,8.87
2018-05-12T16:54:22.299Z,8.33
2018-05-12T16:56:49.766Z,8.43
2018-05-12T16:59:17.241Z,7.70
2018-05-12T17:01:44.660Z,10.13
2018-05-12T17:04:12.111Z,8.57
2018-05-12T17:06:39.560Z,8.70
2018-05-12T17:09:07.030Z,8.40
2018-05-12T17:11:34.484Z,10.70
2018-05-12T17:14:01.946Z,8.50
2018-05-12T17:16:30.153Z,8.47
2018-05-12T17:18:57.963Z,8.60
2018-05-12T17:21:26.925Z,8.67
2018-05-12T17:23:54.440Z,8.10
2018-05-12T17:26:21.884Z,8.70
2018-05-12T17:28:49.342Z,8.23
2018-05-12T17:31:16.784Z,9.07
2018-05-12T17:33:44.230Z,9.10
2018-05-12T17:36:12.629Z,8.90
2018-05-12T17:38:40.907Z,8.80
2018-05-12T17:41:08.349Z,8.80
2018-05-12T17:43:36.760Z,9.07
2018-05-12T17:46:04.217Z,8.23
2018-05-12T17:48:31.698Z,8.37
2018-05-12T17:50:59.133Z,9.17
2018-05-12T17:53:26.588Z,9.40
2018-05-12T17:55:54.033Z,9.10
2018-05-12T17:58:22.447Z,9.10
2018-05-12T18:00:49.895Z,8.70
2018-05-12T18:03:18.120Z,9.20
2018-05-12T18:05:45.564Z,8.77
2018-05-12T18:08:13.019Z,9.30
2018-05-12T18:10:41.228Z,8.97
2018-05-12T18:13:08.805Z,9.33
2018-05-12T18:15:36.258Z,9.97
2018-05-12T18:18:03.703Z,8.80
2018-05-12T18:20:31.907Z,9.53
2018-05-12T18:23:00.129Z,9.00
2018-05-12T18:25:27.808Z,9.13
2018-05-12T18:27:55.265Z,9.53
2018-05-12T18:30:22.710Z,9.07
2018-05-12T18:32:50.158Z,9.73
2018-05-12T18:35:29.871Z,9.57
2018-05-12T18:37:58.092Z,10.43
2018-05-12T18:40:25.553Z,10.13
2018-05-12T18:42:53.000Z,9.23
2018-05-12T18:45:21.217Z,10.90
2018-05-12T18:47:48.705Z,9.33
2018-05-12T18:50:16.151Z,9.57
2018-05-12T18:52:43.605Z,8.87
2018-05-12T18:55:11.817Z,8.30
2018-05-12T18:57:39.301Z,8.80
2018-05-12T19:00:06.735Z,8.10
2018-05-12T19:02:34.224Z,9.15
2018-05-12T19:05:01.668Z,8.70
2018-05-12T19:07:29.897Z,7.83
2018-05-12T19:09:57.344Z,8.00
2018-05-12T19:12:24.810Z,9.07
2018-05-12T19:14:52.251Z,9.20
2018-05-12T19:17:19.725Z,8.47
2018-05-12T19:19:47.969Z,9.80
2018-05-12T19:22:15.401Z,7.83
2018-05-12T19:24:42.861Z,8.87
2018-05-12T19:27:11.066Z,9.47
2018-05-12T19:29:38.537Z,10.73
2018-05-12T19:32:05.994Z,12.37
2018-05-12T19:34:33.455Z,11.67
2018-05-12T19:37:01.674Z,10.67
2018-05-12T19:39:29.126Z,9.80
2018-05-12T19:41:56.572Z,10.67
2018-05-12T19:44:24.792Z,9.77
2018-05-12T19:46:52.244Z,15.67
2018-05-12T19:49:19.693Z,24.23
2018-05-12T19:51:48.008Z,21.20
2018-05-12T19:54:15.473Z,19.57
2018-05-12T19:56:42.920Z,15.33
2018-05-12T19:59:11.146Z,15.13
2018-05-12T20:01:38.597Z,9.40
2018-05-12T20:04:06.065Z,10.40
2018-05-12T20:06:33.552Z,9.27
2018-05-12T20:09:01.015Z,9.97
2018-05-12T20:11:28.465Z,8.90
2018-05-12T20:13:55.946Z,8.33
2018-05-12T20:16:23.372Z,8.03
2018-05-12T20:18:50.819Z,9.03
2018-05-12T20:21:18.263Z,8.50
2018-05-12T20:23:45.866Z,9.27
2018-05-12T20:26:13.306Z,8.37
2018-05-12T20:28:40.760Z,8.60
2018-05-12T20:31:08.271Z,8.80
2018-05-12T20:33:36.437Z,9.97
2018-05-12T20:36:03.884Z,8.77
2018-05-12T20:38:31.335Z,8.00
2018-05-12T20:40:58.785Z,8.63
2018-05-12T20:43:26.999Z,10.13
2018-05-12T20:45:55.351Z,8.33
2018-05-12T20:48:22.808Z,9.70
2018-05-12T20:50:50.257Z,9.83
2018-05-12T20:53:17.725Z,9.50
2018-05-12T20:55:45.180Z,10.37
2018-05-12T20:58:12.641Z,9.40
2018-05-12T21:00:40.085Z,9.40
2018-05-12T21:03:08.347Z,9.00
2018-05-12T21:05:35.824Z,10.35
2018-05-12T21:08:03.285Z,9.23
2018-05-12T21:10:30.728Z,10.03
2018-05-12T21:12:58.178Z,9.27
2018-05-12T21:15:25.624Z,9.70
2018-05-12T21:17:53.101Z,10.20
2018-05-12T22:06:12.564Z,9.27
2018-05-12T22:08:40.004Z,9.27
2018-05-12T22:11:07.465Z,9.47
2018-05-12T22:13:34.908Z,10.07
2018-05-12T22:16:02.373Z,9.07
2018-05-12T22:18:29.818Z,10.00
2018-05-12T22:20:57.280Z,13.20
2018-05-12T22:23:24.720Z,10.80
2018-05-12T22:25:52.175Z,12.27
2018-05-12T22:28:19.629Z,12.40
2018-05-12T22:30:47.093Z,11.77
2018-05-12T22:33:14.548Z,12.77
2018-05-12T22:35:42.768Z,11.60
2018-05-12T22:38:10.229Z,11.97
2018-05-12T22:40:37.691Z,11.50
2018-05-12T22:43:05.130Z,9.93
2018-05-12T22:45:33.358Z,11.33
2018-05-12T22:48:00.856Z,10.13
2018-05-12T22:50:28.295Z,10.60
2018-05-12T22:52:55.744Z,10.60
2018-05-12T22:55:23.960Z,10.37
2018-05-12T22:57:51.425Z,11.10
2018-05-12T23:00:19.599Z,10.53
2018-05-12T23:02:47.066Z,11.80
2018-05-12T23:05:14.525Z,16.90
2018-05-12T23:07:41.983Z,14.43
2018-05-12T23:10:10.275Z,13.23
2018-05-12T23:12:37.668Z,12.40
2018-05-12T23:15:05.127Z,12.93
2018-05-12T23:17:32.584Z,12.33
2018-05-12T23:20:00.032Z,11.90
2018-05-12T23:22:27.512Z,13.57
2018-05-12T23:24:54.958Z,14.17
2018-05-12T23:27:22.407Z,13.00
2018-05-12T23:29:49.856Z,12.40
2018-05-12T23:32:17.319Z,11.60
2018-05-12T23:34:44.767Z,12.40
2018-05-12T23:37:12.211Z,12.10
2018-05-12T23:39:39.663Z,14.07
2018-05-12T23:42:07.885Z,13.93
2018-05-12T23:44:36.107Z,15.60
2018-05-12T23:47:03.553Z,15.40
2018-05-12T23:49:31.012Z,16.40
2018-05-12T23:51:58.469Z,17.80
2018-05-12T23:54:26.700Z,18.77
2018-05-12T23:56:54.157Z,18.60
2018-05-12T23:59:21.615Z,20.60
